createdAt,value
2019-02-10T00:01:00.029Z,19.60
2019-02-10T00:03:30.561Z,17.17
2019-02-10T00:06:01.673Z,20.97
2019-02-10T00:08:33.255Z,14.53
2019-02-10T00:11:03.852Z,14.03
2019-02-10T00:13:37.642Z,20.43
2019-02-10T00:16:17.493Z,26.73
2019-02-10T00:18:48.565Z,19.83
2019-02-10T00:21:19.663Z,17.83
2019-02-10T00:23:51.114Z,18.70
2019-02-10T00:26:22.620Z,19.97
2019-02-10T00:28:54.585Z,20.97
2019-02-10T00:31:25.216Z,20.20
2019-02-10T00:33:55.834Z,21.33
2019-02-10T00:36:32.880Z,16.17
2019-02-10T00:38:59.657Z,20.77
2019-02-10T00:41:30.250Z,21.93
2019-02-10T00:44:04.385Z,21.40
2019-02-10T00:46:34.972Z,19.13
2019-02-10T00:49:06.807Z,22.93
2019-02-10T00:51:37.790Z,25.67
2019-02-10T00:54:09.161Z,21.43
2019-02-10T00:56:45.445Z,22.20
2019-02-10T00:59:16.653Z,24.40
2019-02-10T01:01:50.026Z,20.90
2019-02-10T01:04:21.130Z,17.67
2019-02-10T01:06:52.157Z,22.83
2019-02-10T01:09:24.022Z,17.93
2019-02-10T01:11:56.005Z,21.63
2019-02-10T01:14:28.896Z,19.90
2019-02-10T01:17:00.222Z,20.53
2019-02-10T01:19:31.296Z,20.60
2019-02-10T01:22:02.122Z,18.67
2019-02-10T01:24:32.373Z,21.07
2019-02-10T01:27:02.672Z,25.43
2019-02-10T01:29:33.382Z,25.70
2019-02-10T01:32:04.415Z,18.43
2019-02-10T01:34:36.850Z,20.50
2019-02-10T01:37:09.786Z,25.87
2019-02-10T01:39:42.381Z,19.83
2019-02-10T01:42:14.781Z,22.53
2019-02-10T01:44:46.825Z,25.80
2019-02-10T01:47:17.387Z,18.90
2019-02-10T01:49:51.103Z,19.80
2019-02-10T01:52:23.541Z,20.40
2019-02-10T01:54:54.760Z,18.93
2019-02-10T01:57:25.426Z,22.57
2019-02-10T01:59:57.796Z,23.57
2019-02-10T02:02:28.590Z,19.50
2019-02-10T02:04:59.423Z,21.00
2019-02-10T02:07:30.943Z,21.07
2019-02-10T02:10:01.470Z,26.90
2019-02-10T02:12:33.468Z,27.83
2019-02-10T02:15:04.228Z,23.53
2019-02-10T02:17:36.228Z,24.20
2019-02-10T02:20:08.029Z,17.43
2019-02-10T02:22:38.309Z,24.47
2019-02-10T02:25:13.230Z,25.90
2019-02-10T02:27:44.790Z,20.47
2019-02-10T02:30:21.647Z,19.13
2019-02-10T02:32:52.757Z,19.03
2019-02-10T02:35:24.694Z,26.50
2019-02-10T02:37:57.439Z,23.63
2019-02-10T02:40:27.746Z,19.53
2019-02-10T02:43:00.170Z,26.83
2019-02-10T02:45:32.833Z,22.77
2019-02-10T02:48:04.024Z,24.23
2019-02-10T02:50:36.500Z,21.37
2019-02-10T02:53:07.442Z,19.90
2019-02-10T02:55:38.013Z,22.30
2019-02-10T02:58:08.645Z,24.33
2019-02-10T03:00:39.710Z,18.40
2019-02-10T03:03:11.985Z,26.07
2019-02-10T03:05:44.270Z,27.30
2019-02-10T03:08:15.844Z,19.73
2019-02-10T03:10:46.111Z,20.27
2019-02-10T03:13:16.937Z,26.43
2019-02-10T03:15:47.621Z,18.67
2019-02-10T03:18:18.580Z,25.50
2019-02-10T03:20:50.901Z,22.43
2019-02-10T03:23:22.313Z,19.67
2019-02-10T03:25:52.890Z,16.93
2019-02-10T03:28:26.818Z,27.23
2019-02-10T03:30:58.892Z,18.83
2019-02-10T03:33:30.230Z,21.70
2019-02-10T03:36:02.605Z,22.83
2019-02-10T03:38:34.061Z,20.57
2019-02-10T03:41:04.812Z,22.50
2019-02-10T03:43:38.110Z,21.23
2019-02-10T03:46:10.052Z,15.17
2019-02-10T03:48:41.999Z,17.67
2019-02-10T03:51:14.389Z,16.27
2019-02-10T03:53:45.700Z,20.57
2019-02-10T03:56:17.018Z,20.97
2019-02-10T03:58:49.467Z,24.50
2019-02-10T04:01:21.630Z,23.27
2019-02-10T04:03:54.400Z,18.30
2019-02-10T04:06:27.305Z,20.60
2019-02-10T04:08:58.373Z,21.03
2019-02-10T04:11:31.452Z,20.77
2019-02-10T04:14:03.062Z,17.43
2019-02-10T04:16:33.954Z,17.97
2019-02-10T04:19:04.521Z,18.47
2019-02-10T04:21:34.704Z,18.07
2019-02-10T04:24:06.255Z,17.60
2019-02-10T04:26:36.430Z,17.23
2019-02-10T04:29:09.433Z,18.13
2019-02-10T04:31:41.129Z,15.13
2019-02-10T04:34:15.212Z,18.57
2019-02-10T04:36:45.873Z,16.07
2019-02-10T04:39:18.865Z,14.90
2019-02-10T04:41:51.800Z,11.17
2019-02-10T04:44:23.255Z,13.83
2019-02-10T04:46:53.822Z,16.13
2019-02-10T04:49:24.723Z,12.53
2019-02-10T04:51:56.017Z,12.63
2019-02-10T04:54:27.878Z,20.30
2019-02-10T04:56:58.364Z,13.50
2019-02-10T04:59:32.079Z,11.87
2019-02-10T05:02:04.335Z,12.63
2019-02-10T05:04:36.813Z,14.40
2019-02-10T05:07:07.016Z,13.63
2019-02-10T05:09:38.937Z,11.10
2019-02-10T05:12:09.158Z,12.67
2019-02-10T05:14:39.759Z,14.13
2019-02-10T05:17:10.737Z,10.73
2019-02-10T05:19:47.058Z,11.03
2019-02-10T05:22:19.822Z,11.17
2019-02-10T05:24:50.015Z,10.23
2019-02-10T05:27:21.178Z,9.33
2019-02-10T05:29:53.059Z,10.07
2019-02-10T05:32:24.160Z,10.30
2019-02-10T05:34:55.511Z,7.43
2019-02-10T05:37:30.545Z,8.33
2019-02-10T05:40:03.734Z,9.47
2019-02-10T05:42:35.149Z,6.73
2019-02-10T05:45:07.014Z,6.93
2019-02-10T05:47:38.433Z,7.87
2019-02-10T05:50:09.678Z,9.97
2019-02-10T05:52:39.900Z,7.63
2019-02-10T05:55:10.722Z,4.40
2019-02-10T05:57:40.943Z,7.53
2019-02-10T06:00:12.136Z,5.43
2019-02-10T06:02:42.370Z,4.50
2019-02-10T06:05:22.934Z,5.60
2019-02-10T06:07:55.994Z,3.77
2019-02-10T06:10:27.044Z,5.47
2019-02-10T06:12:58.563Z,5.47
2019-02-10T06:15:31.550Z,3.80
2019-02-10T06:18:05.568Z,2.20
2019-02-10T06:20:38.635Z,4.03
2019-02-10T06:23:09.618Z,2.40
2019-02-10T06:25:41.556Z,3.67
2019-02-10T06:28:14.011Z,3.20
2019-02-10T06:30:44.214Z,1.57
2019-02-10T06:33:14.825Z,1.30
2019-02-10T06:35:47.323Z,2.47
2019-02-10T06:38:22.507Z,2.50
2019-02-10T06:40:52.146Z,1.63
2019-02-10T06:43:23.622Z,1.07
2019-02-10T06:45:54.225Z,2.13
2019-02-10T06:48:26.279Z,1.77
2019-02-10T06:50:58.754Z,1.90
2019-02-10T06:53:30.610Z,1.40
2019-02-10T06:56:03.039Z,1.10
2019-02-10T06:58:33.719Z,1.00
2019-02-10T07:01:15.702Z,1.87
2019-02-10T07:04:01.285Z,1.50
2019-02-10T07:06:32.778Z,1.00
2019-02-10T07:09:04.271Z,1.10
2019-02-10T07:11:34.595Z,1.17
2019-02-10T07:14:06.934Z,13.67
2019-02-10T07:17:37.351Z,1.10
2019-02-10T07:20:44.021Z,3.07
2019-02-10T07:24:07.291Z,1.40
2019-02-10T07:27:08.159Z,1.00
2019-02-10T07:30:35.606Z,1.37
2019-02-10T07:33:15.073Z,2.60
2019-02-10T07:36:30.425Z,1.00
2019-02-10T07:39:27.287Z,1.07
2019-02-10T07:42:38.615Z,2.40
2019-02-10T07:45:43.349Z,4.53
2019-02-10T07:48:42.802Z,0.90
2019-02-10T07:51:44.459Z,0.90
2019-02-10T07:54:31.171Z,0.73
2019-02-10T07:57:46.246Z,2.10
2019-02-10T08:00:27.610Z,1.47
2019-02-10T08:03:19.147Z,1.57
2019-02-10T08:06:48.720Z,2.90
2019-02-10T08:09:48.771Z,1.00
2019-02-10T08:12:59.352Z,1.73
2019-02-10T08:16:03.817Z,4.63
2019-02-10T08:19:11.621Z,2.10
2019-02-10T08:22:17.973Z,1.40
2019-02-10T08:25:43.389Z,1.83
2019-02-10T08:28:58.354Z,3.23
2019-02-10T08:32:05.355Z,1.57
2019-02-10T08:34:51.857Z,2.13
2019-02-10T08:38:06.858Z,1.17
2019-02-10T08:41:28.858Z,3.43
2019-02-10T08:44:27.000Z,1.00
2019-02-10T08:47:08.893Z,1.47
2019-02-10T08:50:20.444Z,0.80
2019-02-10T08:53:02.631Z,1.20
2019-02-10T08:55:33.341Z,1.10
2019-02-10T08:58:03.939Z,0.90
2019-02-10T09:00:35.529Z,0.70
2019-02-10T09:03:07.966Z,1.90
2019-02-10T09:05:39.867Z,1.83
2019-02-10T09:08:11.036Z,0.97
2019-02-10T09:10:46.463Z,1.10
2019-02-10T09:13:18.041Z,1.10
2019-02-10T09:15:50.656Z,2.43
2019-02-10T09:18:22.391Z,2.47
2019-02-10T09:20:56.280Z,0.80
2019-02-10T09:23:29.711Z,3.13
2019-02-10T09:26:01.222Z,0.80
2019-02-10T09:28:32.144Z,1.37
2019-02-10T09:31:03.563Z,0.60
2019-02-10T09:33:36.683Z,1.57
2019-02-10T09:36:09.562Z,1.13
2019-02-10T09:38:40.473Z,3.87
2019-02-10T09:41:11.873Z,1.33
2019-02-10T09:43:42.564Z,1.30
2019-02-10T09:46:14.968Z,3.50
2019-02-10T09:48:46.646Z,1.43
2019-02-10T09:51:19.409Z,0.80
2019-02-10T09:53:51.042Z,2.90
2019-02-10T09:56:21.656Z,1.80
2019-02-10T09:58:57.476Z,2.93
2019-02-10T10:01:31.938Z,2.57
2019-02-10T10:04:05.023Z,3.07
2019-02-10T10:06:38.912Z,2.37
2019-02-10T10:09:10.261Z,4.23
2019-02-10T10:11:41.711Z,3.03
2019-02-10T10:14:12.778Z,3.27
2019-02-10T10:16:43.884Z,2.07
2019-02-10T10:19:14.908Z,1.40
2019-02-10T10:21:47.078Z,1.00
2019-02-10T10:24:19.198Z,6.87
2019-02-10T10:26:54.639Z,1.13
2019-02-10T10:29:25.788Z,2.30
2019-02-10T10:31:58.313Z,0.93
2019-02-10T10:34:29.737Z,1.07
2019-02-10T10:36:59.936Z,1.17
2019-02-10T10:39:30.230Z,1.87
2019-02-10T10:42:01.559Z,3.87
2019-02-10T10:44:32.649Z,2.20
2019-02-10T10:47:03.244Z,1.80
2019-02-10T10:49:33.796Z,1.13
2019-02-10T10:52:04.655Z,1.23
2019-02-10T10:54:42.662Z,2.43
2019-02-10T10:57:08.720Z,1.30
2019-02-10T10:59:42.324Z,2.97
2019-02-10T11:02:13.264Z,2.40
2019-02-10T11:04:44.579Z,1.60
2019-02-10T11:07:15.472Z,1.60
2019-02-10T11:09:46.451Z,1.97
2019-02-10T11:12:19.462Z,1.97
2019-02-10T11:14:51.854Z,2.20
2019-02-10T11:17:25.340Z,2.63
2019-02-10T11:19:58.360Z,2.80
2019-02-10T11:22:28.937Z,3.60
2019-02-10T11:25:04.826Z,1.50
2019-02-10T11:27:37.005Z,1.83
2019-02-10T11:30:08.866Z,2.17
2019-02-10T11:32:39.430Z,1.67
2019-02-10T11:35:12.685Z,3.13
2019-02-10T11:37:43.633Z,3.70
2019-02-10T11:40:16.579Z,1.90
2019-02-10T11:42:49.391Z,1.93
2019-02-10T11:45:21.255Z,2.07
2019-02-10T11:47:53.388Z,1.87
2019-02-10T11:50:27.520Z,1.87
2019-02-10T11:53:01.222Z,2.60
2019-02-10T11:55:36.689Z,3.27
2019-02-10T11:58:07.301Z,2.00
2019-02-10T12:00:37.989Z,1.00
2019-02-10T12:03:08.584Z,1.57
2019-02-10T12:05:39.404Z,1.43
2019-02-10T12:08:10.034Z,2.77
2019-02-10T12:10:41.691Z,3.50
2019-02-10T12:13:13.860Z,1.13
2019-02-10T12:15:46.844Z,3.50
2019-02-10T12:18:17.055Z,2.53
2019-02-10T12:20:47.836Z,3.97
2019-02-10T12:23:18.643Z,2.93
2019-02-10T12:25:51.856Z,3.13
2019-02-10T12:28:23.611Z,4.47
2019-02-10T12:30:54.161Z,2.67
2019-02-10T12:33:25.576Z,3.53
2019-02-10T12:35:58.579Z,4.20
2019-02-10T12:38:33.791Z,2.63
2019-02-10T12:41:08.755Z,1.70
2019-02-10T12:43:41.444Z,1.33
2019-02-10T12:46:13.467Z,2.80
2019-02-10T12:48:46.149Z,1.47
2019-02-10T12:51:18.968Z,6.23
2019-02-10T12:53:54.050Z,1.50
2019-02-10T12:56:26.201Z,2.53
2019-02-10T12:58:59.604Z,2.20
2019-02-10T13:01:30.401Z,3.20
2019-02-10T13:04:00.688Z,8.10
2019-02-10T13:06:31.449Z,6.93
2019-02-10T13:09:03.128Z,8.70
2019-02-10T13:11:35.698Z,6.23
2019-02-10T13:14:07.465Z,7.63
2019-02-10T13:16:38.566Z,4.30
2019-02-10T13:19:10.577Z,3.63
2019-02-10T13:21:41.526Z,4.57
2019-02-10T13:24:13.387Z,2.67
2019-02-10T13:26:46.570Z,5.13
2019-02-10T13:29:19.215Z,6.70
2019-02-10T13:31:50.678Z,6.13
2019-02-10T13:34:22.339Z,4.90
2019-02-10T13:36:57.000Z,6.53
2019-02-10T13:39:29.971Z,5.50
2019-02-10T13:42:03.757Z,4.70
2019-02-10T13:44:35.027Z,3.53
2019-02-10T13:47:06.070Z,2.23
2019-02-10T13:49:37.553Z,4.10
2019-02-10T13:52:10.098Z,2.27
2019-02-10T13:54:45.368Z,2.00
2019-02-10T13:57:18.306Z,2.57
2019-02-10T13:59:54.878Z,4.90
2019-02-10T14:02:26.756Z,4.37
2019-02-10T14:04:59.360Z,3.70
2019-02-10T14:07:30.544Z,5.87
2019-02-10T14:10:01.933Z,7.07
2019-02-10T14:12:33.981Z,7.70
2019-02-10T14:15:07.227Z,4.07
2019-02-10T14:17:38.347Z,3.07
2019-02-10T14:20:12.559Z,3.90
2019-02-10T14:22:43.972Z,6.83
2019-02-10T14:25:15.042Z,3.60
2019-02-10T14:27:46.593Z,5.60
2019-02-10T14:30:18.432Z,6.40
2019-02-10T14:32:49.690Z,4.03
2019-02-10T14:35:22.496Z,4.57
2019-02-10T14:37:55.077Z,3.77
2019-02-10T14:40:33.553Z,20.27
2019-02-10T14:43:05.029Z,4.10
2019-02-10T14:45:38.161Z,8.57
2019-02-10T14:48:08.856Z,10.57
2019-02-10T14:50:41.871Z,7.03
2019-02-10T14:53:13.212Z,5.70
2019-02-10T14:55:45.051Z,6.03
2019-02-10T14:58:29.006Z,3.50
2019-02-10T15:00:59.643Z,6.10
2019-02-10T15:03:32.480Z,10.07
2019-02-10T15:06:03.380Z,6.87
2019-02-10T15:08:34.536Z,6.53
2019-02-10T15:11:06.491Z,8.70
2019-02-10T15:13:38.489Z,20.00
2019-02-10T15:16:10.326Z,9.87
2019-02-10T15:18:42.129Z,3.97
2019-02-10T15:21:15.663Z,6.93
2019-02-10T15:23:47.113Z,26.47
2019-02-10T15:26:20.392Z,15.80
2019-02-10T15:28:53.546Z,35.80
2019-02-10T15:31:25.754Z,10.40
2019-02-10T15:33:56.652Z,15.90
2019-02-10T15:36:27.775Z,5.00
2019-02-10T15:38:58.584Z,13.00
2019-02-10T15:41:28.801Z,4.27
2019-02-10T15:43:59.804Z,10.13
2019-02-10T15:46:31.594Z,14.20
2019-02-10T15:49:01.993Z,7.43
2019-02-10T15:51:37.224Z,5.60
2019-02-10T15:54:05.812Z,11.10
2019-02-10T15:56:36.609Z,10.07
2019-02-10T15:59:09.131Z,10.77
2019-02-10T16:01:40.635Z,11.03
2019-02-10T16:04:12.972Z,5.33
2019-02-10T16:06:44.819Z,24.97
2019-02-10T16:09:15.138Z,7.77
2019-02-10T16:11:46.505Z,8.90
2019-02-10T16:14:18.864Z,14.17
2019-02-10T16:16:51.443Z,5.47
2019-02-10T16:19:22.869Z,11.87
2019-02-10T16:21:54.236Z,8.03
2019-02-10T16:24:24.753Z,10.50
2019-02-10T16:26:55.398Z,15.20
2019-02-10T16:29:26.599Z,14.53
2019-02-10T16:31:56.815Z,8.23
2019-02-10T16:34:27.910Z,31.23
2019-02-10T16:36:59.739Z,6.80
2019-02-10T16:39:30.578Z,22.00
2019-02-10T16:42:01.142Z,11.03
2019-02-10T16:44:32.134Z,34.17
2019-02-10T16:47:03.163Z,9.97
2019-02-10T16:49:34.201Z,14.60
2019-02-10T16:52:04.976Z,10.00
2019-02-10T16:54:36.105Z,14.70
2019-02-10T16:57:06.830Z,7.93
2019-02-10T16:59:38.986Z,24.00
2019-02-10T17:02:10.665Z,10.30
2019-02-10T17:04:42.192Z,7.80
2019-02-10T17:07:12.973Z,9.67
2019-02-10T17:09:45.180Z,13.97
2019-02-10T17:12:17.335Z,8.20
2019-02-10T17:14:49.334Z,6.50
2019-02-10T17:17:22.341Z,5.57
2019-02-10T17:19:53.988Z,4.67
2019-02-10T17:22:26.024Z,4.97
2019-02-10T17:24:57.768Z,3.30
2019-02-10T17:27:29.061Z,10.60
2019-02-10T17:30:01.425Z,9.83
2019-02-10T17:32:33.822Z,10.70
2019-02-10T17:35:04.139Z,13.17
2019-02-10T17:37:34.343Z,11.37
2019-02-10T17:40:06.069Z,18.57
2019-02-10T17:42:37.328Z,9.97
2019-02-10T17:45:10.337Z,8.60
2019-02-10T17:47:40.557Z,10.50
2019-02-10T17:50:15.428Z,15.30
2019-02-10T17:52:48.133Z,13.07
2019-02-10T17:55:19.460Z,8.93
2019-02-10T17:57:52.112Z,4.80
2019-02-10T18:00:26.620Z,4.10
2019-02-10T18:02:57.669Z,3.47
2019-02-10T18:05:28.207Z,6.47
2019-02-10T18:07:58.851Z,2.77
2019-02-10T18:10:30.588Z,2.70
2019-02-10T18:13:02.464Z,5.70
2019-02-10T18:16:01.242Z,5.50
2019-02-10T18:18:51.237Z,4.73
2019-02-10T18:21:39.594Z,4.33
2019-02-10T18:24:39.798Z,4.20
2019-02-10T18:27:34.624Z,4.60
2019-02-10T18:30:34.302Z,4.13
2019-02-10T18:33:34.942Z,3.83
2019-02-10T18:36:16.918Z,15.77
2019-02-10T18:38:56.171Z,12.80
2019-02-10T18:42:05.738Z,15.90
2019-02-10T18:45:14.722Z,6.33
2019-02-10T18:48:02.055Z,16.00
2019-02-10T18:50:59.954Z,8.07
2019-02-10T18:53:51.382Z,11.37
2019-02-10T18:56:31.300Z,7.10
2019-02-10T18:59:24.611Z,8.20
2019-02-10T19:02:16.455Z,4.47
2019-02-10T19:04:56.825Z,4.57
2019-02-10T19:07:50.163Z,5.87
2019-02-10T19:10:40.648Z,5.77
2019-02-10T19:13:31.677Z,11.27
2019-02-10T19:16:26.791Z,8.43
2019-02-10T19:19:06.856Z,3.67
2019-02-10T19:22:00.166Z,3.63
2019-02-10T19:24:38.887Z,3.50
2019-02-10T19:27:29.820Z,4.87
2019-02-10T19:30:17.862Z,4.93
2019-02-10T19:33:17.592Z,4.33
2019-02-10T19:36:07.856Z,3.07
2019-02-10T19:39:06.260Z,3.93
2019-02-10T19:41:55.604Z,5.33
2019-02-10T19:44:44.303Z,3.30
2019-02-10T19:47:31.812Z,3.03
2019-02-10T19:50:25.186Z,3.80
2019-02-10T19:53:14.257Z,5.30
2019-02-10T19:56:16.707Z,3.13
2019-02-10T19:58:58.479Z,3.60
2019-02-10T20:01:47.362Z,7.30
2019-02-10T20:04:33.471Z,3.70
2019-02-10T20:07:14.426Z,4.63
2019-02-10T20:09:53.847Z,3.40
2019-02-10T20:12:53.114Z,3.40
2019-02-10T20:15:42.826Z,5.27
2019-02-10T20:18:31.595Z,13.90
2019-02-10T20:21:37.799Z,4.97
2019-02-10T20:24:30.120Z,5.57
2019-02-10T20:27:18.426Z,5.80
2019-02-10T20:30:12.273Z,4.33
2019-02-10T20:33:02.470Z,8.47
2019-02-10T20:35:50.862Z,5.87
2019-02-10T20:39:00.183Z,4.40
2019-02-10T20:41:56.987Z,4.57
2019-02-10T20:44:40.471Z,2.73
2019-02-10T20:47:36.845Z,2.63
2019-02-10T20:50:26.276Z,11.37
2019-02-10T20:53:17.116Z,3.40
2019-02-10T20:56:02.710Z,6.10
2019-02-10T20:58:49.286Z,2.60
2019-02-10T21:01:53.542Z,3.53
2019-02-10T21:04:43.419Z,2.87
2019-02-10T21:07:34.232Z,2.50
2019-02-10T21:10:17.459Z,4.33
2019-02-10T21:13:03.865Z,2.83
2019-02-10T21:15:46.186Z,4.07
2019-02-10T21:18:33.615Z,3.00
2019-02-10T21:21:31.487Z,3.73
2019-02-10T21:24:33.349Z,4.00
2019-02-10T21:27:13.542Z,5.03
2019-02-10T21:29:58.158Z,3.97
2019-02-10T21:33:06.248Z,2.20
2019-02-10T21:35:53.690Z,3.20
2019-02-10T21:38:46.425Z,2.10
2019-02-10T21:41:34.589Z,3.93
2019-02-10T21:44:36.059Z,3.10
2019-02-10T21:47:17.993Z,4.93
2019-02-10T21:49:49.165Z,2.37
2019-02-10T21:52:20.928Z,2.53
2019-02-10T21:54:54.628Z,1.50
2019-02-10T21:57:26.694Z,3.33
2019-02-10T21:59:58.399Z,1.60
2019-02-10T22:02:29.956Z,2.67
2019-02-10T22:05:01.527Z,2.23
2019-02-10T22:07:33.161Z,1.87
2019-02-10T22:10:05.825Z,3.20
2019-02-10T22:12:39.393Z,2.77
2019-02-10T22:15:10.956Z,3.90
2019-02-10T22:17:41.291Z,4.57
2019-02-10T22:20:13.783Z,1.90
2019-02-10T22:22:47.199Z,2.43
2019-02-10T22:25:20.231Z,2.23
2019-02-10T22:27:52.956Z,2.83
2019-02-10T22:30:24.494Z,2.77
2019-02-10T22:32:54.783Z,2.70
2019-02-10T22:35:25.446Z,2.33
2019-02-10T22:37:56.896Z,2.23
2019-02-10T22:40:27.926Z,2.17
2019-02-10T22:43:00.395Z,4.77
2019-02-10T22:45:30.613Z,2.23
2019-02-10T22:48:01.357Z,2.00
2019-02-10T22:50:32.264Z,2.80
2019-02-10T22:53:05.263Z,2.23
2019-02-10T22:55:35.408Z,5.53
2019-02-10T22:58:07.473Z,3.57
2019-02-10T23:00:50.563Z,1.90
2019-02-10T23:03:21.772Z,3.37
2019-02-10T23:05:54.317Z,2.17
2019-02-10T23:08:25.366Z,2.20
2019-02-10T23:10:56.103Z,3.80
2019-02-10T23:13:28.133Z,2.23
2019-02-10T23:15:59.270Z,3.27
2019-02-10T23:18:30.830Z,2.27
2019-02-10T23:21:03.840Z,4.00
2019-02-10T23:23:39.472Z,2.40
2019-02-10T23:26:11.269Z,2.73
2019-02-10T23:28:44.250Z,3.50
2019-02-10T23:31:16.007Z,3.27
2019-02-10T23:33:47.463Z,2.83
2019-02-10T23:36:18.398Z,3.77
2019-02-10T23:38:50.066Z,3.27
2019-02-10T23:41:21.989Z,3.00
2019-02-10T23:43:54.022Z,3.07
2019-02-10T23:46:26.254Z,4.07
2019-02-10T23:48:56.588Z,3.87
2019-02-10T23:51:27.610Z,4.40
2019-02-10T23:53:58.862Z,3.20
2019-02-10T23:56:30.540Z,4.70
2019-02-10T23:59:05.052Z,5.30
